LIPH/TSF METAR and TAF weather

Enter ICAO airport designator
Station Type Date Time Source
LIPH METAR 2020/07/11 04:20 UTC NOAA

LIPH 110420Z AUTO 03004KT 9999 BKN190/// 23/21 Q1012


Station Type Date Time Source
LIPH Decoded METAR 2020/07/11 04:20 UTC NOAA

Treviso / S. Angelo, Italy (LIPH) 45-39N 012-11E 23M
Jul 11, 2020 - 12:20 AM EDT / 2020.07.11 0420 UTC
Wind: from the NNE (030 degrees) at 5 MPH (4 KT):0
Visibility: greater than 7 mile(s):0
Sky conditions: mostly cloudy
Temperature: 73 F (23 C)
Dew Point: 69 F (21 C)
Relative Humidity: 88%
Pressure (altimeter): 29.88 in. Hg (1012 hPa)
ob: LIPH 110420Z AUTO 03004KT 9999 BKN190/// 23/21 Q1012
cycle: 4

Station Type Date Time Source
LIPH TAF 2020/07/10 18:22 UTC NOAA

TAF LIPH 101700Z 1018/1118 VRB05KT CAVOK PROB40
TEMPO 1115/1118 TSRA
BECMG 1116/1118 04012KT

Example: see airport list